sensor_id;sensor_type;location;lat;lon;timestamp;P1;durP1;ratioP1;P2;durP2;ratioP2
19605;SDS011;9950;50.168;8.210;2023-09-07T00:01:29;4.78;;;3.65;;
19605;SDS011;9950;50.168;8.210;2023-09-07T00:03:56;4.80;;;3.85;;
19605;SDS011;9950;50.168;8.210;2023-09-07T00:06:23;5.05;;;3.92;;
19605;SDS011;9950;50.168;8.210;2023-09-07T00:08:50;6.28;;;3.55;;
19605;SDS011;9950;50.168;8.210;2023-09-07T00:11:19;4.88;;;3.50;;
19605;SDS011;9950;50.168;8.210;2023-09-07T00:13:46;9.85;;;4.13;;
19605;SDS011;9950;50.168;8.210;2023-09-07T00:16:13;5.97;;;3.92;;
19605;SDS011;9950;50.168;8.210;2023-09-07T00:18:41;5.50;;;3.55;;
19605;SDS011;9950;50.168;8.210;2023-09-07T00:21:08;4.05;;;3.63;;
19605;SDS011;9950;50.168;8.210;2023-09-07T00:23:35;6.40;;;3.67;;
19605;SDS011;9950;50.168;8.210;2023-09-07T00:26:02;5.25;;;3.80;;
19605;SDS011;9950;50.168;8.210;2023-09-07T00:28:31;7.65;;;3.92;;
19605;SDS011;9950;50.168;8.210;2023-09-07T00:30:58;4.70;;;3.25;;
19605;SDS011;9950;50.168;8.210;2023-09-07T00:33:25;7.72;;;3.95;;
19605;SDS011;9950;50.168;8.210;2023-09-07T00:35:52;4.63;;;3.83;;
19605;SDS011;9950;50.168;8.210;2023-09-07T00:38:19;7.20;;;4.15;;
19605;SDS011;9950;50.168;8.210;2023-09-07T00:40:46;4.35;;;3.80;;
19605;SDS011;9950;50.168;8.210;2023-09-07T00:43:13;5.82;;;4.10;;
19605;SDS011;9950;50.168;8.210;2023-09-07T00:45:42;4.47;;;3.60;;
19605;SDS011;9950;50.168;8.210;2023-09-07T00:48:09;4.78;;;3.78;;
19605;SDS011;9950;50.168;8.210;2023-09-07T00:50:38;5.07;;;3.53;;
19605;SDS011;9950;50.168;8.210;2023-09-07T00:53:06;5.47;;;3.92;;
19605;SDS011;9950;50.168;8.210;2023-09-07T00:55:33;4.75;;;3.75;;
19605;SDS011;9950;50.168;8.210;2023-09-07T00:58:01;7.65;;;3.97;;
19605;SDS011;9950;50.168;8.210;2023-09-07T01:00:28;5.93;;;3.53;;
19605;SDS011;9950;50.168;8.210;2023-09-07T01:02:57;6.78;;;3.72;;
19605;SDS011;9950;50.168;8.210;2023-09-07T01:05:27;4.43;;;3.17;;
19605;SDS011;9950;50.168;8.210;2023-09-07T01:07:57;4.50;;;3.63;;
19605;SDS011;9950;50.168;8.210;2023-09-07T01:10:25;7.30;;;3.20;;
19605;SDS011;9950;50.168;8.210;2023-09-07T01:12:52;6.63;;;4.57;;
19605;SDS011;9950;50.168;8.210;2023-09-07T01:15:20;5.20;;;3.63;;
19605;SDS011;9950;50.168;8.210;2023-09-07T01:17:47;4.60;;;3.78;;
19605;SDS011;9950;50.168;8.210;2023-09-07T01:20:15;5.05;;;3.45;;
19605;SDS011;9950;50.168;8.210;2023-09-07T01:22:44;6.20;;;4.03;;
19605;SDS011;9950;50.168;8.210;2023-09-07T01:25:12;7.13;;;3.60;;
19605;SDS011;9950;50.168;8.210;2023-09-07T01:27:39;7.88;;;3.65;;
19605;SDS011;9950;50.168;8.210;2023-09-07T01:30:07;6.68;;;3.97;;
19605;SDS011;9950;50.168;8.210;2023-09-07T01:32:34;5.90;;;3.80;;
19605;SDS011;9950;50.168;8.210;2023-09-07T01:35:01;4.35;;;3.83;;
19605;SDS011;9950;50.168;8.210;2023-09-07T01:37:30;4.47;;;3.65;;
19605;SDS011;9950;50.168;8.210;2023-09-07T01:39:59;4.43;;;3.90;;
19605;SDS011;9950;50.168;8.210;2023-09-07T01:42:29;5.03;;;3.67;;
19605;SDS011;9950;50.168;8.210;2023-09-07T01:44:56;6.28;;;3.70;;
19605;SDS011;9950;50.168;8.210;2023-09-07T01:47:23;5.32;;;4.30;;
19605;SDS011;9950;50.168;8.210;2023-09-07T01:49:50;8.23;;;4.03;;
19605;SDS011;9950;50.168;8.210;2023-09-07T01:52:17;6.65;;;3.85;;
19605;SDS011;9950;50.168;8.210;2023-09-07T01:54:44;6.88;;;3.65;;
19605;SDS011;9950;50.168;8.210;2023-09-07T01:57:12;4.60;;;4.07;;
19605;SDS011;9950;50.168;8.210;2023-09-07T01:59:40;4.85;;;3.95;;
19605;SDS011;9950;50.168;8.210;2023-09-07T02:02:07;4.93;;;4.05;;
19605;SDS011;9950;50.168;8.210;2023-09-07T02:04:34;5.05;;;3.72;;
19605;SDS011;9950;50.168;8.210;2023-09-07T02:07:01;5.00;;;3.60;;
19605;SDS011;9950;50.168;8.210;2023-09-07T02:09:29;6.68;;;4.00;;
19605;SDS011;9950;50.168;8.210;2023-09-07T02:11:56;4.03;;;3.53;;
19605;SDS011;9950;50.168;8.210;2023-09-07T02:14:25;4.97;;;3.58;;
19605;SDS011;9950;50.168;8.210;2023-09-07T02:16:52;5.90;;;3.83;;
19605;SDS011;9950;50.168;8.210;2023-09-07T02:19:19;4.88;;;3.47;;
19605;SDS011;9950;50.168;8.210;2023-09-07T02:21:48;4.72;;;3.45;;
19605;SDS011;9950;50.168;8.210;2023-09-07T02:24:16;8.48;;;4.18;;
19605;SDS011;9950;50.168;8.210;2023-09-07T02:26:43;6.70;;;3.75;;
19605;SDS011;9950;50.168;8.210;2023-09-07T02:29:11;5.43;;;3.67;;
19605;SDS011;9950;50.168;8.210;2023-09-07T02:31:39;4.63;;;3.50;;
19605;SDS011;9950;50.168;8.210;2023-09-07T02:34:06;4.43;;;3.17;;
19605;SDS011;9950;50.168;8.210;2023-09-07T02:36:33;4.68;;;3.55;;
19605;SDS011;9950;50.168;8.210;2023-09-07T02:39:01;4.60;;;3.78;;
19605;SDS011;9950;50.168;8.210;2023-09-07T02:41:28;6.47;;;4.25;;
19605;SDS011;9950;50.168;8.210;2023-09-07T02:43:55;5.07;;;3.53;;
19605;SDS011;9950;50.168;8.210;2023-09-07T02:46:22;4.03;;;3.35;;
19605;SDS011;9950;50.168;8.210;2023-09-07T02:48:51;7.45;;;4.18;;
19605;SDS011;9950;50.168;8.210;2023-09-07T02:51:22;5.78;;;3.78;;
19605;SDS011;9950;50.168;8.210;2023-09-07T02:53:49;5.43;;;3.33;;
19605;SDS011;9950;50.168;8.210;2023-09-07T02:56:16;5.43;;;3.85;;
19605;SDS011;9950;50.168;8.210;2023-09-07T02:58:43;4.55;;;3.40;;
19605;SDS011;9950;50.168;8.210;2023-09-07T03:01:11;4.80;;;3.65;;
19605;SDS011;9950;50.168;8.210;2023-09-07T03:03:39;3.88;;;3.47;;
19605;SDS011;9950;50.168;8.210;2023-09-07T03:06:09;5.00;;;4.00;;
19605;SDS011;9950;50.168;8.210;2023-09-07T03:08:36;4.32;;;3.60;;
19605;SDS011;9950;50.168;8.210;2023-09-07T03:11:03;5.55;;;3.90;;
19605;SDS011;9950;50.168;8.210;2023-09-07T03:13:30;4.35;;;3.80;;
19605;SDS011;9950;50.168;8.210;2023-09-07T03:15:57;4.00;;;3.60;;
19605;SDS011;9950;50.168;8.210;2023-09-07T03:18:25;4.63;;;3.60;;
19605;SDS011;9950;50.168;8.210;2023-09-07T03:20:53;6.93;;;4.00;;
19605;SDS011;9950;50.168;8.210;2023-09-07T03:23:23;5.57;;;3.70;;
19605;SDS011;9950;50.168;8.210;2023-09-07T03:25:50;5.68;;;3.85;;
19605;SDS011;9950;50.168;8.210;2023-09-07T03:28:17;4.63;;;3.97;;
19605;SDS011;9950;50.168;8.210;2023-09-07T03:30:44;5.25;;;4.18;;
19605;SDS011;9950;50.168;8.210;2023-09-07T03:33:11;4.07;;;3.45;;
19605;SDS011;9950;50.168;8.210;2023-09-07T03:35:38;5.78;;;4.18;;
19605;SDS011;9950;50.168;8.210;2023-09-07T03:38:06;6.97;;;4.18;;
19605;SDS011;9950;50.168;8.210;2023-09-07T03:40:34;6.20;;;3.60;;
19605;SDS011;9950;50.168;8.210;2023-09-07T03:43:02;4.72;;;3.65;;
19605;SDS011;9950;50.168;8.210;2023-09-07T03:45:29;4.85;;;3.90;;
19605;SDS011;9950;50.168;8.210;2023-09-07T03:47:56;4.50;;;3.88;;
19605;SDS011;9950;50.168;8.210;2023-09-07T03:50:24;4.13;;;3.72;;
19605;SDS011;9950;50.168;8.210;2023-09-07T03:52:51;5.18;;;3.92;;
19605;SDS011;9950;50.168;8.210;2023-09-07T03:55:18;10.68;;;4.70;;
19605;SDS011;9950;50.168;8.210;2023-09-07T03:57:46;5.50;;;3.70;;
19605;SDS011;9950;50.168;8.210;2023-09-07T04:00:14;8.60;;;4.28;;
19605;SDS011;9950;50.168;8.210;2023-09-07T04:02:41;6.47;;;4.40;;
19605;SDS011;9950;50.168;8.210;2023-09-07T04:05:08;15.07;;;5.03;;
19605;SDS011;9950;50.168;8.210;2023-09-07T04:07:36;6.15;;;4.72;;
19605;SDS011;9950;50.168;8.210;2023-09-07T04:10:04;5.15;;;4.57;;
19605;SDS011;9950;50.168;8.210;2023-09-07T04:12:31;8.80;;;6.28;;
19605;SDS011;9950;50.168;8.210;2023-09-07T04:15:01;7.03;;;5.10;;
19605;SDS011;9950;50.168;8.210;2023-09-07T04:17:28;6.60;;;5.15;;
19605;SDS011;9950;50.168;8.210;2023-09-07T04:19:57;7.50;;;5.10;;
19605;SDS011;9950;50.168;8.210;2023-09-07T04:22:24;7.70;;;5.13;;
19605;SDS011;9950;50.168;8.210;2023-09-07T04:24:51;6.13;;;5.18;;
19605;SDS011;9950;50.168;8.210;2023-09-07T04:27:19;10.00;;;5.43;;
19605;SDS011;9950;50.168;8.210;2023-09-07T04:29:46;8.73;;;5.43;;
19605;SDS011;9950;50.168;8.210;2023-09-07T04:32:16;7.57;;;5.55;;
19605;SDS011;9950;50.168;8.210;2023-09-07T04:34:43;7.90;;;5.35;;
19605;SDS011;9950;50.168;8.210;2023-09-07T04:37:11;7.03;;;5.80;;
19605;SDS011;9950;50.168;8.210;2023-09-07T04:39:38;6.53;;;5.38;;
19605;SDS011;9950;50.168;8.210;2023-09-07T04:42:05;8.38;;;5.30;;
19605;SDS011;9950;50.168;8.210;2023-09-07T04:44:33;6.28;;;5.13;;
19605;SDS011;9950;50.168;8.210;2023-09-07T04:47:01;7.65;;;5.63;;
19605;SDS011;9950;50.168;8.210;2023-09-07T04:49:29;6.90;;;5.13;;
19605;SDS011;9950;50.168;8.210;2023-09-07T04:51:56;7.78;;;5.55;;
19605;SDS011;9950;50.168;8.210;2023-09-07T04:54:23;7.53;;;5.13;;
19605;SDS011;9950;50.168;8.210;2023-09-07T04:56:51;7.50;;;5.60;;
19605;SDS011;9950;50.168;8.210;2023-09-07T04:59:18;8.50;;;5.32;;
19605;SDS011;9950;50.168;8.210;2023-09-07T05:01:45;11.15;;;5.55;;
19605;SDS011;9950;50.168;8.210;2023-09-07T05:04:12;9.13;;;5.45;;
19605;SDS011;9950;50.168;8.210;2023-09-07T05:06:40;8.45;;;5.70;;
19605;SDS011;9950;50.168;8.210;2023-09-07T05:09:08;8.82;;;5.30;;
19605;SDS011;9950;50.168;8.210;2023-09-07T05:11:36;8.50;;;6.03;;
19605;SDS011;9950;50.168;8.210;2023-09-07T05:14:03;7.15;;;5.85;;
19605;SDS011;9950;50.168;8.210;2023-09-07T05:16:30;6.80;;;5.70;;
19605;SDS011;9950;50.168;8.210;2023-09-07T05:18:57;7.25;;;5.60;;
19605;SDS011;9950;50.168;8.210;2023-09-07T05:21:25;8.20;;;5.47;;
19605;SDS011;9950;50.168;8.210;2023-09-07T05:23:53;9.27;;;5.40;;
19605;SDS011;9950;50.168;8.210;2023-09-07T05:26:20;7.70;;;5.60;;
19605;SDS011;9950;50.168;8.210;2023-09-07T05:28:49;7.50;;;5.18;;
19605;SDS011;9950;50.168;8.210;2023-09-07T05:31:16;10.75;;;5.40;;
19605;SDS011;9950;50.168;8.210;2023-09-07T05:33:43;5.88;;;5.18;;
19605;SDS011;9950;50.168;8.210;2023-09-07T05:36:10;7.57;;;5.30;;
19605;SDS011;9950;50.168;8.210;2023-09-07T05:38:37;9.35;;;6.30;;
19605;SDS011;9950;50.168;8.210;2023-09-07T05:41:06;8.68;;;6.50;;
19605;SDS011;9950;50.168;8.210;2023-09-07T05:43:33;8.73;;;6.35;;
19605;SDS011;9950;50.168;8.210;2023-09-07T05:46:00;9.00;;;6.50;;
19605;SDS011;9950;50.168;8.210;2023-09-07T05:48:28;7.85;;;6.00;;
19605;SDS011;9950;50.168;8.210;2023-09-07T05:50:55;7.22;;;5.15;;
19605;SDS011;9950;50.168;8.210;2023-09-07T05:53:22;9.43;;;6.05;;
19605;SDS011;9950;50.168;8.210;2023-09-07T05:55:51;6.22;;;5.40;;
19605;SDS011;9950;50.168;8.210;2023-09-07T05:58:19;5.97;;;4.90;;
19605;SDS011;9950;50.168;8.210;2023-09-07T06:00:46;6.40;;;4.95;;
19605;SDS011;9950;50.168;8.210;2023-09-07T06:03:12;7.50;;;5.40;;
19605;SDS011;9950;50.168;8.210;2023-09-07T06:05:40;6.47;;;4.82;;
19605;SDS011;9950;50.168;8.210;2023-09-07T06:08:07;5.70;;;4.85;;
19605;SDS011;9950;50.168;8.210;2023-09-07T06:10:34;7.30;;;5.28;;
19605;SDS011;9950;50.168;8.210;2023-09-07T06:13:01;6.53;;;5.00;;
19605;SDS011;9950;50.168;8.210;2023-09-07T06:15:29;7.07;;;4.78;;
19605;SDS011;9950;50.168;8.210;2023-09-07T06:17:56;6.43;;;5.22;;
19605;SDS011;9950;50.168;8.210;2023-09-07T06:20:24;6.70;;;5.00;;
19605;SDS011;9950;50.168;8.210;2023-09-07T06:22:51;7.90;;;4.97;;
19605;SDS011;9950;50.168;8.210;2023-09-07T06:25:18;7.35;;;4.78;;
19605;SDS011;9950;50.168;8.210;2023-09-07T06:27:47;6.82;;;4.25;;
19605;SDS011;9950;50.168;8.210;2023-09-07T06:30:14;6.10;;;4.32;;
19605;SDS011;9950;50.168;8.210;2023-09-07T06:32:42;6.28;;;4.68;;
19605;SDS011;9950;50.168;8.210;2023-09-07T06:35:09;9.40;;;5.05;;
19605;SDS011;9950;50.168;8.210;2023-09-07T06:37:37;7.05;;;4.82;;
19605;SDS011;9950;50.168;8.210;2023-09-07T06:40:06;6.88;;;4.40;;
19605;SDS011;9950;50.168;8.210;2023-09-07T06:42:34;6.40;;;4.75;;
19605;SDS011;9950;50.168;8.210;2023-09-07T06:45:02;6.82;;;4.43;;
19605;SDS011;9950;50.168;8.210;2023-09-07T06:47:29;5.95;;;4.57;;
19605;SDS011;9950;50.168;8.210;2023-09-07T06:49:57;5.85;;;4.53;;
19605;SDS011;9950;50.168;8.210;2023-09-07T06:52:24;4.70;;;3.83;;
19605;SDS011;9950;50.168;8.210;2023-09-07T06:54:52;8.25;;;4.40;;
19605;SDS011;9950;50.168;8.210;2023-09-07T06:57:19;7.05;;;4.50;;
19605;SDS011;9950;50.168;8.210;2023-09-07T06:59:46;5.72;;;4.63;;
19605;SDS011;9950;50.168;8.210;2023-09-07T07:02:14;6.40;;;4.78;;
19605;SDS011;9950;50.168;8.210;2023-09-07T07:04:41;8.13;;;5.00;;
19605;SDS011;9950;50.168;8.210;2023-09-07T07:07:10;6.18;;;4.65;;
19605;SDS011;9950;50.168;8.210;2023-09-07T07:09:37;5.80;;;4.78;;
19605;SDS011;9950;50.168;8.210;2023-09-07T07:12:04;6.35;;;4.60;;
19605;SDS011;9950;50.168;8.210;2023-09-07T07:14:32;5.07;;;4.55;;
19605;SDS011;9950;50.168;8.210;2023-09-07T07:16:59;5.00;;;4.40;;
19605;SDS011;9950;50.168;8.210;2023-09-07T07:19:27;5.80;;;5.10;;
19605;SDS011;9950;50.168;8.210;2023-09-07T07:21:54;6.85;;;4.10;;
19605;SDS011;9950;50.168;8.210;2023-09-07T07:24:22;5.80;;;4.80;;
19605;SDS011;9950;50.168;8.210;2023-09-07T07:26:49;6.15;;;4.75;;
19605;SDS011;9950;50.168;8.210;2023-09-07T07:29:16;8.85;;;4.40;;
19605;SDS011;9950;50.168;8.210;2023-09-07T07:31:44;6.47;;;4.50;;
19605;SDS011;9950;50.168;8.210;2023-09-07T07:34:12;7.60;;;4.43;;
19605;SDS011;9950;50.168;8.210;2023-09-07T07:36:39;5.28;;;4.45;;
19605;SDS011;9950;50.168;8.210;2023-09-07T07:39:06;5.05;;;4.53;;
19605;SDS011;9950;50.168;8.210;2023-09-07T07:41:35;5.30;;;4.43;;
19605;SDS011;9950;50.168;8.210;2023-09-07T07:44:03;5.65;;;4.35;;
19605;SDS011;9950;50.168;8.210;2023-09-07T07:46:30;6.78;;;4.70;;
19605;SDS011;9950;50.168;8.210;2023-09-07T07:48:57;6.88;;;4.55;;
19605;SDS011;9950;50.168;8.210;2023-09-07T07:51:24;4.85;;;4.32;;
19605;SDS011;9950;50.168;8.210;2023-09-07T07:53:53;5.15;;;4.38;;
19605;SDS011;9950;50.168;8.210;2023-09-07T07:56:21;5.50;;;4.47;;
19605;SDS011;9950;50.168;8.210;2023-09-07T07:58:50;5.03;;;4.40;;
19605;SDS011;9950;50.168;8.210;2023-09-07T08:01:17;7.70;;;4.78;;
19605;SDS011;9950;50.168;8.210;2023-09-07T08:03:45;5.20;;;4.28;;
19605;SDS011;9950;50.168;8.210;2023-09-07T08:06:12;4.55;;;4.13;;
19605;SDS011;9950;50.168;8.210;2023-09-07T08:08:39;6.43;;;4.28;;
19605;SDS011;9950;50.168;8.210;2023-09-07T08:11:07;4.93;;;4.45;;
19605;SDS011;9950;50.168;8.210;2023-09-07T08:13:34;5.57;;;4.40;;
19605;SDS011;9950;50.168;8.210;2023-09-07T08:16:03;5.80;;;4.20;;
19605;SDS011;9950;50.168;8.210;2023-09-07T08:18:32;5.05;;;4.07;;
19605;SDS011;9950;50.168;8.210;2023-09-07T08:20:59;4.18;;;3.78;;
19605;SDS011;9950;50.168;8.210;2023-09-07T08:23:26;6.35;;;4.28;;
19605;SDS011;9950;50.168;8.210;2023-09-07T08:25:54;6.25;;;4.40;;
19605;SDS011;9950;50.168;8.210;2023-09-07T08:28:21;5.40;;;4.07;;
19605;SDS011;9950;50.168;8.210;2023-09-07T08:30:49;6.72;;;4.07;;
19605;SDS011;9950;50.168;8.210;2023-09-07T08:33:19;4.82;;;4.30;;
19605;SDS011;9950;50.168;8.210;2023-09-07T08:35:51;4.43;;;3.60;;
19605;SDS011;9950;50.168;8.210;2023-09-07T08:38:20;5.70;;;4.07;;
19605;SDS011;9950;50.168;8.210;2023-09-07T08:40:51;4.72;;;3.92;;
19605;SDS011;9950;50.168;8.210;2023-09-07T08:43:19;4.95;;;4.20;;
19605;SDS011;9950;50.168;8.210;2023-09-07T08:45:49;5.47;;;4.10;;
19605;SDS011;9950;50.168;8.210;2023-09-07T08:48:17;5.60;;;4.10;;
19605;SDS011;9950;50.168;8.210;2023-09-07T08:50:46;4.63;;;3.60;;
19605;SDS011;9950;50.168;8.210;2023-09-07T08:53:17;4.47;;;3.88;;
19605;SDS011;9950;50.168;8.210;2023-09-07T08:55:45;5.80;;;4.30;;
19605;SDS011;9950;50.168;8.210;2023-09-07T08:58:12;5.82;;;4.18;;
19605;SDS011;9950;50.168;8.210;2023-09-07T09:00:40;7.28;;;4.28;;
19605;SDS011;9950;50.168;8.210;2023-09-07T09:03:09;4.55;;;3.95;;
19605;SDS011;9950;50.168;8.210;2023-09-07T09:05:38;4.63;;;4.18;;
19605;SDS011;9950;50.168;8.210;2023-09-07T09:08:07;6.18;;;4.20;;
19605;SDS011;9950;50.168;8.210;2023-09-07T09:10:34;5.05;;;3.97;;
19605;SDS011;9950;50.168;8.210;2023-09-07T09:13:01;5.45;;;4.00;;
19605;SDS011;9950;50.168;8.210;2023-09-07T09:15:29;5.03;;;4.25;;
19605;SDS011;9950;50.168;8.210;2023-09-07T09:17:56;5.82;;;4.20;;
19605;SDS011;9950;50.168;8.210;2023-09-07T09:20:24;5.72;;;4.00;;
19605;SDS011;9950;50.168;8.210;2023-09-07T09:22:52;6.28;;;4.00;;
19605;SDS011;9950;50.168;8.210;2023-09-07T09:25:21;4.10;;;3.70;;
19605;SDS011;9950;50.168;8.210;2023-09-07T09:27:48;5.70;;;4.00;;
19605;SDS011;9950;50.168;8.210;2023-09-07T09:30:15;4.30;;;3.60;;
19605;SDS011;9950;50.168;8.210;2023-09-07T09:32:43;3.88;;;3.50;;
19605;SDS011;9950;50.168;8.210;2023-09-07T09:35:10;4.55;;;3.83;;
19605;SDS011;9950;50.168;8.210;2023-09-07T09:37:44;5.22;;;3.90;;
19605;SDS011;9950;50.168;8.210;2023-09-07T09:40:12;5.00;;;4.15;;
19605;SDS011;9950;50.168;8.210;2023-09-07T09:42:40;4.55;;;3.97;;
19605;SDS011;9950;50.168;8.210;2023-09-07T09:45:08;4.97;;;4.13;;
19605;SDS011;9950;50.168;8.210;2023-09-07T09:47:36;4.55;;;3.58;;
19605;SDS011;9950;50.168;8.210;2023-09-07T09:50:06;5.38;;;3.85;;
19605;SDS011;9950;50.168;8.210;2023-09-07T09:52:33;4.20;;;3.60;;
19605;SDS011;9950;50.168;8.210;2023-09-07T09:55:02;4.40;;;3.78;;
19605;SDS011;9950;50.168;8.210;2023-09-07T09:57:30;5.38;;;4.05;;
19605;SDS011;9950;50.168;8.210;2023-09-07T10:00:00;6.28;;;3.97;;
19605;SDS011;9950;50.168;8.210;2023-09-07T10:02:35;4.47;;;3.70;;
19605;SDS011;9950;50.168;8.210;2023-09-07T10:05:03;4.30;;;3.33;;
19605;SDS011;9950;50.168;8.210;2023-09-07T10:07:41;4.00;;;3.60;;
19605;SDS011;9950;50.168;8.210;2023-09-07T10:10:09;4.57;;;3.78;;
19605;SDS011;9950;50.168;8.210;2023-09-07T10:12:40;5.30;;;3.92;;
19605;SDS011;9950;50.168;8.210;2023-09-07T10:15:19;4.00;;;3.60;;
19605;SDS011;9950;50.168;8.210;2023-09-07T10:17:46;5.28;;;3.60;;
19605;SDS011;9950;50.168;8.210;2023-09-07T10:20:15;5.80;;;4.28;;
19605;SDS011;9950;50.168;8.210;2023-09-07T10:22:42;5.63;;;3.80;;
19605;SDS011;9950;50.168;8.210;2023-09-07T10:25:19;4.50;;;3.67;;
19605;SDS011;9950;50.168;8.210;2023-09-07T10:27:46;5.43;;;3.88;;
19605;SDS011;9950;50.168;8.210;2023-09-07T10:30:15;3.92;;;3.58;;
19605;SDS011;9950;50.168;8.210;2023-09-07T10:32:44;5.72;;;3.72;;
19605;SDS011;9950;50.168;8.210;2023-09-07T10:35:13;6.22;;;3.75;;
19605;SDS011;9950;50.168;8.210;2023-09-07T10:37:40;4.45;;;3.60;;
19605;SDS011;9950;50.168;8.210;2023-09-07T10:40:08;7.90;;;4.00;;
19605;SDS011;9950;50.168;8.210;2023-09-07T10:42:37;6.75;;;3.72;;
19605;SDS011;9950;50.168;8.210;2023-09-07T10:45:10;4.50;;;3.90;;
19605;SDS011;9950;50.168;8.210;2023-09-07T10:47:41;7.68;;;4.03;;
19605;SDS011;9950;50.168;8.210;2023-09-07T10:50:10;10.80;;;5.40;;
19605;SDS011;9950;50.168;8.210;2023-09-07T10:52:38;8.13;;;4.70;;
19605;SDS011;9950;50.168;8.210;2023-09-07T10:55:06;7.13;;;4.20;;
19605;SDS011;9950;50.168;8.210;2023-09-07T10:57:40;7.72;;;3.83;;
19605;SDS011;9950;50.168;8.210;2023-09-07T11:00:09;6.45;;;3.88;;
19605;SDS011;9950;50.168;8.210;2023-09-07T11:02:37;4.20;;;3.50;;
19605;SDS011;9950;50.168;8.210;2023-09-07T11:05:05;4.88;;;3.60;;
19605;SDS011;9950;50.168;8.210;2023-09-07T11:07:33;4.07;;;3.67;;
19605;SDS011;9950;50.168;8.210;2023-09-07T11:10:01;6.07;;;4.10;;
19605;SDS011;9950;50.168;8.210;2023-09-07T11:12:29;4.50;;;3.97;;
19605;SDS011;9950;50.168;8.210;2023-09-07T11:14:57;5.00;;;3.95;;
19605;SDS011;9950;50.168;8.210;2023-09-07T11:17:25;6.07;;;3.60;;
19605;SDS011;9950;50.168;8.210;2023-09-07T11:19:53;4.68;;;3.33;;
19605;SDS011;9950;50.168;8.210;2023-09-07T11:22:22;5.35;;;4.00;;
19605;SDS011;9950;50.168;8.210;2023-09-07T11:24:49;4.47;;;3.58;;
19605;SDS011;9950;50.168;8.210;2023-09-07T11:27:17;5.07;;;3.60;;
19605;SDS011;9950;50.168;8.210;2023-09-07T11:29:52;4.53;;;3.20;;
19605;SDS011;9950;50.168;8.210;2023-09-07T11:32:19;4.07;;;3.67;;
19605;SDS011;9950;50.168;8.210;2023-09-07T11:34:47;6.15;;;3.70;;
19605;SDS011;9950;50.168;8.210;2023-09-07T11:37:15;4.90;;;3.50;;
19605;SDS011;9950;50.168;8.210;2023-09-07T11:39:44;4.80;;;3.95;;
19605;SDS011;9950;50.168;8.210;2023-09-07T11:42:11;3.78;;;3.42;;
19605;SDS011;9950;50.168;8.210;2023-09-07T11:44:38;4.32;;;3.60;;
19605;SDS011;9950;50.168;8.210;2023-09-07T11:47:05;6.03;;;3.50;;
19605;SDS011;9950;50.168;8.210;2023-09-07T11:49:32;4.68;;;3.70;;
19605;SDS011;9950;50.168;8.210;2023-09-07T11:52:00;6.00;;;3.97;;
19605;SDS011;9950;50.168;8.210;2023-09-07T11:54:27;5.28;;;3.30;;
19605;SDS011;9950;50.168;8.210;2023-09-07T11:56:55;3.97;;;3.25;;
19605;SDS011;9950;50.168;8.210;2023-09-07T11:59:23;4.38;;;3.90;;
19605;SDS011;9950;50.168;8.210;2023-09-07T12:01:50;6.78;;;3.67;;
19605;SDS011;9950;50.168;8.210;2023-09-07T12:04:17;6.03;;;4.00;;
19605;SDS011;9950;50.168;8.210;2023-09-07T12:06:44;4.25;;;3.67;;
19605;SDS011;9950;50.168;8.210;2023-09-07T12:09:12;4.10;;;3.70;;
19605;SDS011;9950;50.168;8.210;2023-09-07T12:11:39;4.95;;;3.92;;
19605;SDS011;9950;50.168;8.210;2023-09-07T12:14:10;7.07;;;3.90;;
19605;SDS011;9950;50.168;8.210;2023-09-07T12:16:37;5.57;;;3.88;;
19605;SDS011;9950;50.168;8.210;2023-09-07T12:19:04;7.00;;;3.67;;
19605;SDS011;9950;50.168;8.210;2023-09-07T12:21:31;4.25;;;3.65;;
19605;SDS011;9950;50.168;8.210;2023-09-07T12:23:58;5.90;;;3.75;;
19605;SDS011;9950;50.168;8.210;2023-09-07T12:26:25;4.28;;;3.25;;
19605;SDS011;9950;50.168;8.210;2023-09-07T12:28:52;5.00;;;3.78;;
19605;SDS011;9950;50.168;8.210;2023-09-07T12:31:21;4.05;;;3.55;;
19605;SDS011;9950;50.168;8.210;2023-09-07T12:33:48;5.72;;;3.70;;
19605;SDS011;9950;50.168;8.210;2023-09-07T12:36:16;4.05;;;3.40;;
19605;SDS011;9950;50.168;8.210;2023-09-07T12:38:46;5.57;;;4.00;;
19605;SDS011;9950;50.168;8.210;2023-09-07T12:41:13;5.63;;;3.97;;
19605;SDS011;9950;50.168;8.210;2023-09-07T12:43:40;6.57;;;4.50;;
19605;SDS011;9950;50.168;8.210;2023-09-07T12:46:08;5.13;;;3.92;;
19605;SDS011;9950;50.168;8.210;2023-09-07T12:48:37;5.05;;;3.75;;
19605;SDS011;9950;50.168;8.210;2023-09-07T12:51:04;5.20;;;3.58;;
19605;SDS011;9950;50.168;8.210;2023-09-07T12:53:31;9.45;;;3.70;;
19605;SDS011;9950;50.168;8.210;2023-09-07T12:55:58;4.95;;;3.40;;
19605;SDS011;9950;50.168;8.210;2023-09-07T12:58:26;5.00;;;3.40;;
19605;SDS011;9950;50.168;8.210;2023-09-07T13:00:53;4.30;;;3.30;;
19605;SDS011;9950;50.168;8.210;2023-09-07T13:03:21;4.60;;;3.38;;
19605;SDS011;9950;50.168;8.210;2023-09-07T13:05:49;3.85;;;3.25;;
19605;SDS011;9950;50.168;8.210;2023-09-07T13:08:16;4.25;;;3.13;;
19605;SDS011;9950;50.168;8.210;2023-09-07T13:10:43;7.80;;;3.75;;
19605;SDS011;9950;50.168;8.210;2023-09-07T13:13:10;6.00;;;3.83;;
19605;SDS011;9950;50.168;8.210;2023-09-07T13:15:38;4.72;;;3.42;;
19605;SDS011;9950;50.168;8.210;2023-09-07T13:18:05;4.28;;;3.72;;
19605;SDS011;9950;50.168;8.210;2023-09-07T13:20:32;4.57;;;3.30;;
19605;SDS011;9950;50.168;8.210;2023-09-07T13:23:01;3.83;;;3.15;;
19605;SDS011;9950;50.168;8.210;2023-09-07T13:25:28;4.03;;;3.53;;
19605;SDS011;9950;50.168;8.210;2023-09-07T13:27:55;3.75;;;3.17;;
19605;SDS011;9950;50.168;8.210;2023-09-07T13:30:22;4.43;;;3.10;;
19605;SDS011;9950;50.168;8.210;2023-09-07T13:32:49;4.28;;;3.40;;
19605;SDS011;9950;50.168;8.210;2023-09-07T13:35:16;5.68;;;3.70;;
19605;SDS011;9950;50.168;8.210;2023-09-07T13:37:44;5.00;;;3.35;;
19605;SDS011;9950;50.168;8.210;2023-09-07T13:40:12;6.45;;;3.47;;
19605;SDS011;9950;50.168;8.210;2023-09-07T13:42:40;5.88;;;3.38;;
19605;SDS011;9950;50.168;8.210;2023-09-07T13:45:08;3.13;;;2.72;;
19605;SDS011;9950;50.168;8.210;2023-09-07T13:47:35;4.15;;;2.92;;
19605;SDS011;9950;50.168;8.210;2023-09-07T13:50:03;5.43;;;3.00;;
19605;SDS011;9950;50.168;8.210;2023-09-07T13:52:30;4.78;;;3.88;;
19605;SDS011;9950;50.168;8.210;2023-09-07T13:54:57;3.55;;;3.25;;
19605;SDS011;9950;50.168;8.210;2023-09-07T13:57:25;3.25;;;2.95;;
19605;SDS011;9950;50.168;8.210;2023-09-07T13:59:53;3.90;;;2.95;;
19605;SDS011;9950;50.168;8.210;2023-09-07T14:02:20;3.15;;;2.85;;
19605;SDS011;9950;50.168;8.210;2023-09-07T14:04:48;4.25;;;3.00;;
19605;SDS011;9950;50.168;8.210;2023-09-07T14:07:15;3.30;;;3.00;;
19605;SDS011;9950;50.168;8.210;2023-09-07T14:09:43;3.83;;;3.42;;
19605;SDS011;9950;50.168;8.210;2023-09-07T14:12:10;3.65;;;3.13;;
19605;SDS011;9950;50.168;8.210;2023-09-07T14:14:38;3.17;;;2.88;;
19605;SDS011;9950;50.168;8.210;2023-09-07T14:17:06;4.38;;;2.83;;
19605;SDS011;9950;50.168;8.210;2023-09-07T14:19:33;4.25;;;3.10;;
19605;SDS011;9950;50.168;8.210;2023-09-07T14:22:00;4.22;;;2.83;;
19605;SDS011;9950;50.168;8.210;2023-09-07T14:24:27;6.07;;;3.20;;
19605;SDS011;9950;50.168;8.210;2023-09-07T14:26:55;4.50;;;2.78;;
19605;SDS011;9950;50.168;8.210;2023-09-07T14:29:22;6.03;;;2.90;;
19605;SDS011;9950;50.168;8.210;2023-09-07T14:31:50;3.40;;;2.92;;
19605;SDS011;9950;50.168;8.210;2023-09-07T14:34:17;4.95;;;3.20;;
19605;SDS011;9950;50.168;8.210;2023-09-07T14:36:44;4.68;;;2.97;;
19605;SDS011;9950;50.168;8.210;2023-09-07T14:39:12;5.10;;;3.10;;
19605;SDS011;9950;50.168;8.210;2023-09-07T14:41:41;3.60;;;3.05;;
19605;SDS011;9950;50.168;8.210;2023-09-07T14:44:08;3.80;;;3.05;;
19605;SDS011;9950;50.168;8.210;2023-09-07T14:46:36;4.05;;;2.90;;
19605;SDS011;9950;50.168;8.210;2023-09-07T14:49:04;4.32;;;3.35;;
19605;SDS011;9950;50.168;8.210;2023-09-07T14:51:32;3.75;;;3.33;;
19605;SDS011;9950;50.168;8.210;2023-09-07T14:53:59;5.78;;;3.55;;
19605;SDS011;9950;50.168;8.210;2023-09-07T14:56:26;4.28;;;3.47;;
19605;SDS011;9950;50.168;8.210;2023-09-07T14:58:54;5.22;;;3.80;;
19605;SDS011;9950;50.168;8.210;2023-09-07T15:01:21;5.10;;;3.40;;
19605;SDS011;9950;50.168;8.210;2023-09-07T15:03:48;4.13;;;3.33;;